createdAt,value
2018-09-11T00:02:14.623Z,19.68
2018-09-11T00:04:44.032Z,19.66
2018-09-11T00:07:13.996Z,19.63
2018-09-11T00:09:44.432Z,19.69
2018-09-11T00:12:14.163Z,19.73
2018-09-11T00:14:45.821Z,19.72
2018-09-11T00:17:30.314Z,19.67
2018-09-11T00:20:00.616Z,19.68
2018-09-11T00:22:30.375Z,19.62
2018-09-11T00:25:00.504Z,19.65
2018-09-11T00:27:30.661Z,19.68
2018-09-11T00:30:05.506Z,19.69
2018-09-11T00:32:36.341Z,19.69
2018-09-11T00:35:05.875Z,19.64
2018-09-11T00:37:46.915Z,19.58
2018-09-11T00:40:18.316Z,19.56
2018-09-11T00:42:48.509Z,19.53
2018-09-11T00:45:18.443Z,19.56
2018-09-11T00:47:48.103Z,19.54
2018-09-11T00:50:17.802Z,19.48
2018-09-11T00:52:48.477Z,19.55
2018-09-11T00:55:25.510Z,19.57
2018-09-11T00:58:00.537Z,19.50
2018-09-11T01:00:31.286Z,19.55
2018-09-11T01:03:00.905Z,19.56
2018-09-11T01:05:31.597Z,19.62
2018-09-11T01:08:03.305Z,19.67
2018-09-11T01:10:33.088Z,19.52
2018-09-11T01:13:02.656Z,19.53
2018-09-11T01:15:32.724Z,19.40
2018-09-11T01:18:02.639Z,19.28
2018-09-11T01:20:32.079Z,19.15
2018-09-11T01:23:01.868Z,19.18
2018-09-11T01:25:31.558Z,19.14
2018-09-11T01:28:01.425Z,19.06
2018-09-11T01:30:32.012Z,19.07
2018-09-11T01:33:01.484Z,19.01
2018-09-11T01:35:31.040Z,18.92
2018-09-11T01:38:02.195Z,18.90
2018-09-11T01:40:32.902Z,18.90
2018-09-11T01:43:06.221Z,18.83
2018-09-11T01:45:36.845Z,18.70
2018-09-11T01:48:07.582Z,18.71
2018-09-11T01:50:37.437Z,18.73
2018-09-11T01:53:06.913Z,18.78
2018-09-11T01:55:36.478Z,18.65
2018-09-11T01:58:07.978Z,18.67
2018-09-11T02:00:37.536Z,18.67
2018-09-11T02:03:07.039Z,18.73
2018-09-11T02:05:36.651Z,18.88
2018-09-11T02:08:06.949Z,18.82
2018-09-11T02:10:37.637Z,18.61
2018-09-11T02:13:10.212Z,18.56
2018-09-11T02:15:39.795Z,18.56
2018-09-11T02:18:10.584Z,18.73
2018-09-11T02:20:41.900Z,18.71
2018-09-11T02:23:16.498Z,18.70
2018-09-11T02:25:47.046Z,18.74
2018-09-11T02:28:17.151Z,18.68
2018-09-11T02:30:47.307Z,18.75
2018-09-11T02:33:17.224Z,18.71
2018-09-11T02:35:46.755Z,18.75
2018-09-11T02:38:16.388Z,18.73
2018-09-11T02:40:46.888Z,18.77
2018-09-11T02:45:42.654Z,18.81
2018-09-11T02:48:12.074Z,18.79
2018-09-11T02:50:41.748Z,18.81
2018-09-11T02:53:11.649Z,18.83
2018-09-11T02:55:41.163Z,18.80
2018-09-11T02:58:11.013Z,18.72
2018-09-11T03:00:40.818Z,18.75
2018-09-11T03:03:10.476Z,18.68
2018-09-11T03:05:40.153Z,18.66
2018-09-11T03:08:10.164Z,18.66
2018-09-11T03:10:39.753Z,18.57
2018-09-11T03:13:10.369Z,18.55
2018-09-11T03:15:40.231Z,18.51
2018-09-11T03:18:09.575Z,18.62
2018-09-11T03:20:41.116Z,18.72
2018-09-11T03:23:11.015Z,18.84
2018-09-11T03:25:40.803Z,18.88
2018-09-11T03:28:10.679Z,18.93
2018-09-11T03:30:40.397Z,18.99
2018-09-11T03:33:09.828Z,18.93
2018-09-11T03:35:39.753Z,18.82
2018-09-11T03:38:10.331Z,18.82
2018-09-11T03:40:40.138Z,18.63
2018-09-11T03:43:10.205Z,18.71
2018-09-11T03:45:43.978Z,18.94
2018-09-11T03:48:14.472Z,19.02
2018-09-11T03:50:44.203Z,19.12
2018-09-11T03:53:13.575Z,19.07
2018-09-11T03:55:43.321Z,19.07
2018-09-11T03:58:13.262Z,19.04
2018-09-11T04:00:43.139Z,19.14
2018-09-11T04:03:12.491Z,19.15
2018-09-11T04:05:42.113Z,19.00
2018-09-11T04:08:11.525Z,19.26
2018-09-11T04:10:40.815Z,19.23
2018-09-11T04:13:10.546Z,19.30
2018-09-11T04:15:40.100Z,19.38
2018-09-11T04:18:09.518Z,19.32
2018-09-11T04:20:40.260Z,19.29
2018-09-11T04:23:09.744Z,19.35
2018-09-11T04:25:38.988Z,19.27
2018-09-11T04:28:08.648Z,19.42
2018-09-11T04:30:38.135Z,19.46
2018-09-11T04:33:07.683Z,19.63
2018-09-11T04:35:37.925Z,19.66
2018-09-11T04:38:07.361Z,19.78
2018-09-11T04:40:36.737Z,19.71
2018-09-11T04:43:06.455Z,19.66
2018-09-11T04:45:36.262Z,19.26
2018-09-11T04:48:05.881Z,19.61
2018-09-11T04:50:35.686Z,19.49
2018-09-11T04:53:05.706Z,19.48
2018-09-11T04:55:40.003Z,19.43
2018-09-11T04:58:10.767Z,19.53
2018-09-11T05:00:40.716Z,19.66
2018-09-11T05:03:21.048Z,19.62
2018-09-11T05:05:52.909Z,19.60
2018-09-11T05:08:22.542Z,19.57
2018-09-11T05:10:52.959Z,19.57
2018-09-11T05:13:23.547Z,19.58
2018-09-11T05:15:54.924Z,19.65
2018-09-11T05:18:34.387Z,19.58
2018-09-11T05:21:05.673Z,19.43
2018-09-11T05:23:34.974Z,19.47
2018-09-11T05:26:04.854Z,19.39
2018-09-11T05:28:34.940Z,19.39
2018-09-11T05:31:04.920Z,19.38
2018-09-11T05:33:34.818Z,19.33
2018-09-11T05:36:08.448Z,19.43
2018-09-11T05:38:38.360Z,19.38
2018-09-11T05:41:08.287Z,19.33
2018-09-11T05:43:37.824Z,19.45
2018-09-11T05:46:07.760Z,19.43
2018-09-11T05:48:39.257Z,19.48
2018-09-11T05:51:08.942Z,19.42
2018-09-11T05:53:40.069Z,19.45
2018-09-11T05:56:16.106Z,19.54
2018-09-11T05:58:47.756Z,19.61
2018-09-11T06:01:18.084Z,19.67
2018-09-11T06:03:47.705Z,19.71
2018-09-11T06:06:20.104Z,19.76
2018-09-11T06:08:50.101Z,19.79
2018-09-11T06:11:20.009Z,19.66
2018-09-11T06:14:12.674Z,19.58
2018-09-11T06:16:43.808Z,19.77
2018-09-11T06:19:13.583Z,19.81
2018-09-11T06:21:43.415Z,19.88
2018-09-11T06:24:21.335Z,19.79
2018-09-11T06:26:50.817Z,20.02
2018-09-11T06:29:26.804Z,20.12
2018-09-11T06:32:02.606Z,19.99
2018-09-11T06:34:37.398Z,20.33
2018-09-11T06:37:07.020Z,20.29
2018-09-11T06:39:40.654Z,20.43
2018-09-11T06:43:06.537Z,20.53
2018-09-11T06:45:50.156Z,20.86
2018-09-11T06:48:22.265Z,21.37
2018-09-11T06:50:52.554Z,21.49
2018-09-11T06:53:30.113Z,21.67
2018-09-11T06:56:01.948Z,21.78
2018-09-11T06:58:34.553Z,21.72
2018-09-11T07:01:05.070Z,21.85
2018-09-11T07:03:36.365Z,22.52
2018-09-11T07:06:06.824Z,22.69
2018-09-11T07:08:36.819Z,22.26
2018-09-11T07:11:06.381Z,21.73
2018-09-11T07:13:38.575Z,21.69
2018-09-11T07:16:11.962Z,21.88
2018-09-11T07:18:42.070Z,22.17
2018-09-11T07:21:12.055Z,22.15
2018-09-11T07:23:41.958Z,22.07
2018-09-11T07:26:12.719Z,22.12
2018-09-11T07:28:46.827Z,22.34
2018-09-11T07:31:16.907Z,22.47
2018-09-11T07:33:47.829Z,22.15
2018-09-11T07:36:25.204Z,22.34
2018-09-11T07:38:59.904Z,22.49
2018-09-11T07:41:37.165Z,22.51
2018-09-11T07:44:10.746Z,22.28
2018-09-11T07:49:22.060Z,22.73
2018-09-11T07:51:51.625Z,23.20
2018-09-11T07:54:20.980Z,23.69
2018-09-11T07:56:51.281Z,24.36
2018-09-11T07:59:21.956Z,24.85
2018-09-11T08:01:54.134Z,24.65
2018-09-11T08:04:33.339Z,24.15
2018-09-11T08:07:03.582Z,24.26
2018-09-11T08:09:40.107Z,24.18
2018-09-11T08:14:55.377Z,24.62
2018-09-11T08:17:33.495Z,24.71
2018-09-11T08:20:13.437Z,24.72
2018-09-11T08:22:43.186Z,24.98
2018-09-11T08:25:12.811Z,25.50
2018-09-11T08:27:44.300Z,25.46
2018-09-11T08:30:17.315Z,26.00
2018-09-11T08:32:51.588Z,25.99
2018-09-11T08:35:25.372Z,25.89
2018-09-11T08:37:54.982Z,26.09
2018-09-11T08:40:25.929Z,26.08
2018-09-11T08:42:57.851Z,26.03
2018-09-11T08:45:27.697Z,26.14
2018-09-11T08:47:58.147Z,26.55
2018-09-11T08:50:28.965Z,26.52
2018-09-11T08:53:00.085Z,26.20
2018-09-11T08:55:31.370Z,26.45
2018-09-11T08:58:01.373Z,26.60
2018-09-11T09:00:32.235Z,27.10
2018-09-11T09:03:01.853Z,27.12
2018-09-11T09:05:32.522Z,26.64
2018-09-11T09:08:03.230Z,26.65
2018-09-11T09:10:33.411Z,26.72
2018-09-11T09:13:07.064Z,26.90
2018-09-11T09:15:38.229Z,27.41
2018-09-11T09:18:08.517Z,27.37
2018-09-11T09:20:43.348Z,27.18
2018-09-11T09:23:27.436Z,27.50
2018-09-11T09:26:09.915Z,28.00
2018-09-11T09:28:42.480Z,28.10
2018-09-11T09:31:17.666Z,28.91
2018-09-11T09:33:49.673Z,29.28
2018-09-11T09:36:22.099Z,29.09
2018-09-11T09:38:56.521Z,29.78
2018-09-11T09:41:31.732Z,29.64
2018-09-11T09:44:02.427Z,29.67
2018-09-11T09:46:33.472Z,30.13
2018-09-11T09:49:12.639Z,29.75
2018-09-11T09:51:45.865Z,29.73
2018-09-11T09:54:16.110Z,29.54
2018-09-11T09:56:46.502Z,29.81
2018-09-11T09:59:20.293Z,29.76
2018-09-11T10:01:57.083Z,29.79
2018-09-11T10:04:28.336Z,29.54
2018-09-11T10:07:00.399Z,29.36
2018-09-11T10:09:35.436Z,29.39
2018-09-11T10:12:07.807Z,29.76
2018-09-11T10:14:39.811Z,29.78
2018-09-11T10:17:14.943Z,30.15
2018-09-11T10:19:53.323Z,30.50
2018-09-11T10:22:22.996Z,30.67
2018-09-11T10:24:52.475Z,30.81
2018-09-11T10:27:25.674Z,31.25
2018-09-11T10:29:57.433Z,30.58
2018-09-11T10:32:28.101Z,30.36
2018-09-11T10:35:09.574Z,30.66
2018-09-11T10:37:39.939Z,30.72
2018-09-11T10:40:12.535Z,30.75
2018-09-11T10:42:47.387Z,30.80
2018-09-11T10:45:21.248Z,30.97
2018-09-11T10:47:51.270Z,31.27
2018-09-11T10:50:21.000Z,31.01
2018-09-11T10:52:52.210Z,31.28
2018-09-11T10:55:22.313Z,31.45
2018-09-11T10:57:59.230Z,31.68
2018-09-11T11:03:22.362Z,32.25
2018-09-11T11:05:52.818Z,32.14
2018-09-11T11:08:23.566Z,32.02
2018-09-11T11:10:58.601Z,32.01
2018-09-11T11:13:28.833Z,31.51
2018-09-11T11:15:59.644Z,31.62
2018-09-11T11:18:31.744Z,32.14
2018-09-11T11:21:09.750Z,32.49
2018-09-11T11:23:42.333Z,31.75
2018-09-11T11:26:17.010Z,31.49
2018-09-11T11:28:54.443Z,31.39
2018-09-11T11:31:36.507Z,31.52
2018-09-11T11:34:08.145Z,31.54
2018-09-11T11:36:44.899Z,31.45
2018-09-11T11:39:19.057Z,31.59
2018-09-11T11:41:50.961Z,31.69
2018-09-11T11:44:22.666Z,31.38
2018-09-11T11:46:53.289Z,31.69
2018-09-11T11:49:22.711Z,31.93
2018-09-11T11:51:57.496Z,32.38
2018-09-11T11:54:27.871Z,32.08
2018-09-11T11:56:57.220Z,32.24
2018-09-11T11:59:32.042Z,32.29
2018-09-11T12:02:04.563Z,32.05
2018-09-11T12:04:35.965Z,32.26
2018-09-11T12:07:06.536Z,32.55
2018-09-11T12:09:38.909Z,32.04
2018-09-11T12:12:10.644Z,31.94
2018-09-11T12:14:44.997Z,31.98
2018-09-11T12:17:16.569Z,32.00
2018-09-11T12:19:47.301Z,32.14
2018-09-11T12:22:28.291Z,31.81
2018-09-11T12:25:04.071Z,31.89
2018-09-11T12:27:33.609Z,32.08
2018-09-11T12:30:06.669Z,32.10
2018-09-11T12:32:36.679Z,32.36
2018-09-11T12:35:06.718Z,32.27
2018-09-11T12:37:37.667Z,32.43
2018-09-11T12:40:12.470Z,32.45
2018-09-11T12:42:42.899Z,32.39
2018-09-11T12:45:20.364Z,32.34
2018-09-11T12:47:50.013Z,32.10
2018-09-11T12:50:23.683Z,32.40
2018-09-11T12:52:53.050Z,31.73
2018-09-11T12:55:23.011Z,31.76
2018-09-11T12:57:56.125Z,32.44
2018-09-11T13:00:37.661Z,32.53
2018-09-11T13:03:10.318Z,32.43
2018-09-11T13:05:41.876Z,32.60
2018-09-11T13:08:14.890Z,32.57
2018-09-11T13:10:45.219Z,32.53
2018-09-11T13:13:14.961Z,32.59
2018-09-11T13:15:45.936Z,32.31
2018-09-11T13:18:23.862Z,32.05
2018-09-11T13:20:57.286Z,32.18
2018-09-11T13:23:59.322Z,32.29
2018-09-11T13:26:30.193Z,32.83
2018-09-11T13:29:01.715Z,32.77
2018-09-11T13:31:32.185Z,32.32
2018-09-11T13:34:01.507Z,32.60
2018-09-11T13:36:33.338Z,32.81
2018-09-11T13:39:06.138Z,32.56
2018-09-11T13:41:35.584Z,32.34
2018-09-11T13:44:05.385Z,31.77
2018-09-11T13:46:37.877Z,31.89
2018-09-11T13:49:10.080Z,31.79
2018-09-11T13:51:41.554Z,32.02
2018-09-11T13:54:12.261Z,31.53
2018-09-11T13:56:44.721Z,31.39
2018-09-11T13:59:17.534Z,31.09
2018-09-11T14:07:30.970Z,31.08
2018-09-11T14:10:10.651Z,31.10
2018-09-11T14:12:43.593Z,31.10
2018-09-11T14:15:32.202Z,31.24
2018-09-11T14:18:05.627Z,31.68
2018-09-11T14:20:49.677Z,31.66
2018-09-11T14:23:21.133Z,31.85
2018-09-11T14:26:12.333Z,32.01
2018-09-11T14:28:58.070Z,32.14
2018-09-11T14:31:31.003Z,32.30
2018-09-11T14:34:07.872Z,32.18
2018-09-11T14:39:50.497Z,31.64
2018-09-11T14:42:35.653Z,31.71
2018-09-11T14:48:18.753Z,31.72
2018-09-11T14:51:07.268Z,31.90
2018-09-11T14:56:30.816Z,31.85
2018-09-11T14:59:12.410Z,31.73
2018-09-11T15:01:59.525Z,31.45
2018-09-11T15:04:45.125Z,31.39
2018-09-11T15:07:28.014Z,31.40
2018-09-11T15:10:11.559Z,31.33
2018-09-11T15:12:44.202Z,31.19
2018-09-11T15:15:24.217Z,31.17
2018-09-11T15:18:01.772Z,31.04
2018-09-11T15:20:52.643Z,30.80
2018-09-11T15:23:32.048Z,30.60
2018-09-11T15:26:04.260Z,30.49
2018-09-11T15:28:56.896Z,30.56
2018-09-11T15:31:38.564Z,30.60
2018-09-11T15:34:11.962Z,30.57
2018-09-11T15:36:46.904Z,30.27
2018-09-11T15:39:18.629Z,30.14
2018-09-11T15:41:49.655Z,30.03
2018-09-11T15:44:26.792Z,29.74
2018-09-11T15:46:58.420Z,29.99
2018-09-11T15:49:28.435Z,29.99
2018-09-11T15:52:06.914Z,30.03
2018-09-11T15:54:41.083Z,30.08
2018-09-11T15:57:33.488Z,30.09
2018-09-11T16:00:26.902Z,30.00
2018-09-11T16:02:58.006Z,29.94
2018-09-11T16:05:29.939Z,29.88
2018-09-11T16:08:04.158Z,30.01
2018-09-11T16:10:40.789Z,29.90
2018-09-11T16:13:25.031Z,29.92
2018-09-11T16:15:56.800Z,29.81
2018-09-11T16:21:26.175Z,29.75
2018-09-11T16:23:55.776Z,29.74
2018-09-11T16:26:26.164Z,29.79
2018-09-11T16:28:56.144Z,29.89
2018-09-11T16:31:50.787Z,29.83
2018-09-11T16:34:33.785Z,29.67
2018-09-11T16:37:07.272Z,29.69
2018-09-11T16:39:46.506Z,29.69
2018-09-11T16:42:19.444Z,29.82
2018-09-11T16:48:16.350Z,29.67
2018-09-11T16:51:52.089Z,29.65
2018-09-11T16:54:32.080Z,29.76
2018-09-11T16:57:48.925Z,29.71
2018-09-11T17:00:22.480Z,29.60
2018-09-11T17:03:05.634Z,29.57
2018-09-11T17:05:37.277Z,29.63
2018-09-11T17:08:14.492Z,29.55
2018-09-11T17:10:52.400Z,29.58
2018-09-11T17:13:29.370Z,29.52
2018-09-11T17:16:11.127Z,29.37
2018-09-11T17:18:58.038Z,29.38
2018-09-11T17:21:59.755Z,29.35
2018-09-11T17:24:32.062Z,29.35
2018-09-11T17:27:15.231Z,29.23
2018-09-11T17:30:10.644Z,29.13
2018-09-11T17:33:05.374Z,29.14
2018-09-11T17:38:30.589Z,29.01
2018-09-11T17:43:57.718Z,28.89
2018-09-11T17:46:29.586Z,28.82
2018-09-11T17:49:12.244Z,28.80
2018-09-11T17:51:54.750Z,28.69
2018-09-11T17:54:31.320Z,28.70
2018-09-11T17:57:29.746Z,28.65
2018-09-11T18:00:09.262Z,28.62
2018-09-11T18:02:42.714Z,28.25
2018-09-11T18:05:15.680Z,28.50
2018-09-11T18:07:52.173Z,28.43
2018-09-11T18:10:22.636Z,28.38
2018-09-11T18:12:54.904Z,28.34
2018-09-11T18:15:27.991Z,28.31
2018-09-11T18:17:58.748Z,28.21
2018-09-11T18:22:02.373Z,28.21
2018-09-11T18:24:41.450Z,28.12
2018-09-11T18:27:14.551Z,28.13
2018-09-11T18:29:52.924Z,28.09
2018-09-11T18:32:30.697Z,28.06
2018-09-11T18:35:22.431Z,28.03
2018-09-11T18:38:05.571Z,28.01
2018-09-11T18:40:55.105Z,27.97
2018-09-11T18:43:41.835Z,27.87
2018-09-11T18:46:12.231Z,27.79
2018-09-11T18:48:52.939Z,27.76
2018-09-11T18:54:15.394Z,27.67
2018-09-11T18:56:45.269Z,27.62
2018-09-11T18:59:17.561Z,27.59
2018-09-11T19:01:50.563Z,27.60
2018-09-11T19:04:23.597Z,27.58
2018-09-11T19:06:53.539Z,27.56
2018-09-11T19:09:35.576Z,27.53
2018-09-11T19:15:18.327Z,27.32
2018-09-11T19:17:47.941Z,27.23
2018-09-11T19:20:28.866Z,27.18
2018-09-11T19:23:05.988Z,27.14
2018-09-11T19:25:37.942Z,27.14
2018-09-11T19:28:08.618Z,27.04
2018-09-11T19:31:24.815Z,27.01
2018-09-11T19:33:59.537Z,27.00
2018-09-11T19:36:29.370Z,26.97
2018-09-11T19:39:01.391Z,26.92
2018-09-11T19:41:50.841Z,26.77
2018-09-11T19:44:30.608Z,26.61
2018-09-11T19:47:26.811Z,26.46
2018-09-11T19:50:03.742Z,26.34
2018-09-11T19:52:44.605Z,26.25
2018-09-11T19:55:17.028Z,26.15
2018-09-11T19:57:49.333Z,26.03
2018-09-11T20:00:25.596Z,26.00
2018-09-11T20:03:13.486Z,25.91
2018-09-11T20:05:44.428Z,25.85
2018-09-11T20:08:21.606Z,25.77
2018-09-11T20:10:51.171Z,25.77
2018-09-11T20:13:21.694Z,25.73
2018-09-11T20:18:46.391Z,25.42
2018-09-11T20:21:23.252Z,25.64
2018-09-11T20:24:01.518Z,25.57
2018-09-11T20:32:13.861Z,25.49
2018-09-11T20:34:56.635Z,25.39
2018-09-11T20:37:39.868Z,25.23
2018-09-11T20:40:17.657Z,25.15
2018-09-11T20:42:47.681Z,25.02
2018-09-11T20:45:19.486Z,24.87
2018-09-11T20:47:53.350Z,24.91
2018-09-11T20:50:24.681Z,25.01
2018-09-11T20:52:56.316Z,25.02
2018-09-11T20:55:30.778Z,25.07
2018-09-11T20:58:02.338Z,25.02
2018-09-11T21:00:39.807Z,24.87
2018-09-11T21:03:17.907Z,24.54
2018-09-11T21:06:44.715Z,24.75
2018-09-11T21:12:33.170Z,24.64
2018-09-11T21:15:14.197Z,24.57
2018-09-11T21:17:45.040Z,24.57
2018-09-11T21:20:26.983Z,24.55
2018-09-11T21:23:01.675Z,24.52
2018-09-11T21:29:17.709Z,24.39
2018-09-11T21:31:50.439Z,24.37
2018-09-11T21:34:22.452Z,24.31
2018-09-11T21:37:13.323Z,24.25
2018-09-11T21:39:56.489Z,24.19
2018-09-11T21:42:28.302Z,24.15
2018-09-11T21:44:58.312Z,24.14
2018-09-11T21:47:41.517Z,24.18
2018-09-11T21:50:39.967Z,24.13
2018-09-11T21:56:14.835Z,24.09
2018-09-11T21:58:56.324Z,24.14
2018-09-11T22:01:51.871Z,24.08
2018-09-11T22:04:25.411Z,24.01
2018-09-11T22:07:08.464Z,24.05
2018-09-11T22:12:54.751Z,23.98
2018-09-11T22:15:38.355Z,23.88
2018-09-11T22:18:14.290Z,23.88
2018-09-11T22:20:49.559Z,23.75
2018-09-11T22:23:24.580Z,23.68
2018-09-11T22:25:59.660Z,23.70
2018-09-11T22:28:30.864Z,23.69
2018-09-11T22:31:13.277Z,23.66
2018-09-11T22:33:45.388Z,23.59
2018-09-11T22:36:26.026Z,23.57
2018-09-11T22:39:17.293Z,23.34
2018-09-11T22:42:06.104Z,23.54
2018-09-11T22:44:46.767Z,23.55
2018-09-11T22:47:26.235Z,23.57
2018-09-11T22:49:56.691Z,23.62
2018-09-11T22:52:28.340Z,23.62
2018-09-11T22:54:59.536Z,23.66
2018-09-11T22:57:33.280Z,23.69
2018-09-11T23:00:08.451Z,23.72
2018-09-11T23:02:52.614Z,23.72
2018-09-11T23:05:27.389Z,23.71
2018-09-11T23:07:58.104Z,23.74
2018-09-11T23:10:27.320Z,23.72
2018-09-11T23:12:59.657Z,23.70
2018-09-11T23:15:31.616Z,23.60
2018-09-11T23:18:01.070Z,23.50
2018-09-11T23:20:30.812Z,23.52
2018-09-11T23:23:01.059Z,23.52
2018-09-11T23:25:31.889Z,23.36
2018-09-11T23:28:08.302Z,23.39
2018-09-11T23:30:42.892Z,23.36
2018-09-11T23:33:20.750Z,23.22
2018-09-11T23:35:58.818Z,23.20
2018-09-11T23:38:29.146Z,23.23
2018-09-11T23:40:58.791Z,23.22
2018-09-11T23:43:35.676Z,23.23
2018-09-11T23:46:12.221Z,23.31
2018-09-11T23:48:41.808Z,23.35
2018-09-11T23:51:12.331Z,23.26
2018-09-11T23:53:42.224Z,23.08
2018-09-11T23:56:15.038Z,22.90
2018-09-11T23:58:45.431Z,22.82
